Time;durP1;ratioP1;P1;durP2;ratioP2;P2;SDS_P1;SDS_P2;PMS_P1;PMS_P2;Temp;Humidity;BMP_temperature;BMP_pressure;BME280_temperature;BME280_humidity;BME280_pressure;Samples;Min_cycle;Max_cycle;Signal;HPM_P1;HPM_P2
2024/01/06 00:01:01;;;;;;;30.75;20.60;;;307.90;2304.00;;;;;;5082780;28;20482;-61
2024/01/06 00:03:27;;;;;;;65.70;40.97;;;307.90;2304.00;;;;;;5063920;28;20016;-61
2024/01/06 00:05:52;;;;;;;146.90;85.30;;;307.90;2304.00;;;;;;5089000;28;20032;-62
2024/01/06 00:08:18;;;;;;;132.73;78.40;;;307.90;2304.00;;;;;;5089811;28;20041;-67
2024/01/06 00:10:44;;;;;;;70.18;48.05;;;307.90;2304.00;;;;;;5088293;28;20020;-61
2024/01/06 00:13:10;;;;;;;93.20;60.28;;;308.00;2304.00;;;;;;5089161;28;20073;-62
2024/01/06 00:15:36;;;;;;;148.02;83.47;;;308.00;2304.00;;;;;;5086855;28;20047;-61
2024/01/06 00:18:02;;;;;;;146.23;86.20;;;307.90;2304.00;;;;;;5088233;28;20028;-62
2024/01/06 00:20:28;;;;;;;73.72;42.70;;;308.00;2304.00;;;;;;5085931;28;20016;-63
2024/01/06 00:22:55;;;;;;;235.52;123.40;;;308.00;2304.00;;;;;;5087626;28;20028;-61
2024/01/06 00:25:21;;;;;;;129.55;75.25;;;308.00;2304.00;;;;;;5074384;28;20060;-62
2024/01/06 00:27:46;;;;;;;58.97;34.00;;;308.00;2304.00;;;;;;5070064;28;20087;-62
2024/01/06 00:30:12;;;;;;;41.00;25.75;;;308.00;2304.00;;;;;;5069918;28;20025;-62
2024/01/06 00:32:38;;;;;;;23.58;16.88;;;308.00;2304.00;;;;;;5069993;28;20028;-62
2024/01/06 00:35:04;;;;;;;29.83;20.35;;;308.00;2304.00;;;;;;5069542;28;20021;-61
2024/01/06 00:37:30;;;;;;;52.03;31.77;;;308.10;2304.00;;;;;;5069768;28;20055;-63
2024/01/06 00:39:56;;;;;;;37.67;24.95;;;308.10;2304.00;;;;;;5069296;28;20052;-62
2024/01/06 00:42:22;;;;;;;71.93;42.20;;;308.10;2304.00;;;;;;5069532;28;20031;-61
2024/01/06 00:44:47;;;;;;;60.53;33.78;;;308.00;2304.00;;;;;;5071476;28;20387;-62
2024/01/06 00:47:13;;;;;;;50.40;32.05;;;307.90;2304.00;;;;;;5078620;28;20032;-61
2024/01/06 00:49:39;;;;;;;41.75;24.58;;;307.90;2304.00;;;;;;5069592;28;20016;-62
2024/01/06 00:52:05;;;;;;;82.03;49.70;;;307.90;2304.00;;;;;;5069585;28;20025;-61
2024/01/06 00:54:30;;;;;;;25.77;15.70;;;307.90;2304.00;;;;;;5069635;28;20021;-60
2024/01/06 00:56:56;;;;;;;23.80;14.50;;;307.90;2304.00;;;;;;5069253;28;20032;-62
2024/01/06 00:59:22;;;;;;;29.90;20.42;;;307.80;2304.00;;;;;;5068459;28;20028;-62
2024/01/06 01:01:48;;;;;;;21.90;15.35;;;307.80;2304.00;;;;;;5067979;28;20558;-64
2024/01/06 01:04:13;;;;;;;21.55;16.00;;;307.80;2304.00;;;;;;5072268;28;20486;-62
2024/01/06 01:06:39;;;;;;;31.00;19.77;;;307.80;2304.00;;;;;;5069119;28;20078;-61
2024/01/06 01:09:05;;;;;;;28.25;18.25;;;307.70;2304.00;;;;;;5069204;28;20081;-62
2024/01/06 01:11:31;;;;;;;37.33;23.90;;;307.70;2304.00;;;;;;5069336;28;20488;-61
2024/01/06 01:13:57;;;;;;;44.25;29.48;;;307.60;2304.00;;;;;;5069097;28;20483;-61
2024/01/06 01:16:22;;;;;;;27.73;17.88;;;307.60;2304.00;;;;;;5069152;28;20149;-61
2024/01/06 01:18:48;;;;;;;26.25;16.85;;;307.70;2304.00;;;;;;5069240;28;20103;-62
2024/01/06 01:21:14;;;;;;;23.50;19.15;;;307.70;2304.00;;;;;;5068682;28;20486;-62
2024/01/06 01:23:40;;;;;;;41.95;28.05;;;307.70;2304.00;;;;;;5069241;28;20526;-65
2024/01/06 01:26:06;;;;;;;32.58;21.88;;;307.70;2304.00;;;;;;5069214;28;20115;-65
2024/01/06 01:28:32;;;;;;;53.22;32.00;;;307.70;2304.00;;;;;;5069417;28;20098;-61
2024/01/06 01:30:58;;;;;;;30.27;19.90;;;307.70;2304.00;;;;;;5069287;28;20371;-64
2024/01/06 01:33:24;;;;;;;38.72;24.00;;;307.80;2304.00;;;;;;5068771;28;20379;-61
2024/01/06 01:35:49;;;;;;;71.30;41.67;;;307.80;2304.00;;;;;;5069052;28;20048;-61
2024/01/06 01:38:15;;;;;;;76.18;46.35;;;307.80;2304.00;;;;;;5068938;28;20544;-62
2024/01/06 01:40:41;;;;;;;61.15;35.47;;;307.90;2304.00;;;;;;5068734;28;20083;-62
2024/01/06 01:43:16;;;;;;;34.17;23.15;;;307.90;2304.00;;;;;;5069210;28;20066;-60
2024/01/06 01:45:42;;;;;;;32.42;21.48;;;307.90;2304.00;;;;;;5069347;28;20445;-64
2024/01/06 01:48:08;;;;;;;31.60;19.70;;;307.90;2304.00;;;;;;5068988;28;20111;-61
2024/01/06 01:50:34;;;;;;;30.85;19.88;;;307.80;2304.00;;;;;;5068751;28;20023;-61
2024/01/06 01:53:00;;;;;;;45.65;26.70;;;307.70;2304.00;;;;;;5068990;28;20021;-61
2024/01/06 01:55:26;;;;;;;39.72;25.80;;;307.70;2304.00;;;;;;5068903;28;20017;-61
2024/01/06 01:57:52;;;;;;;44.83;28.65;;;307.70;2304.00;;;;;;5068658;28;20025;-61
2024/01/06 02:00:18;;;;;;;44.45;29.10;;;307.70;2304.00;;;;;;5068907;28;20475;-62
2024/01/06 02:02:44;;;;;;;26.33;18.15;;;307.70;2304.00;;;;;;5068704;28;20074;-62
2024/01/06 02:05:10;;;;;;;39.83;25.40;;;307.70;2304.00;;;;;;5068700;28;20451;-65
2024/01/06 02:07:36;;;;;;;35.17;24.70;;;307.80;2304.00;;;;;;5068444;28;20040;-63
2024/01/06 02:10:01;;;;;;;34.83;25.67;;;307.80;2304.00;;;;;;5068733;28;20064;-61
2024/01/06 02:12:27;;;;;;;30.33;20.10;;;307.80;2304.00;;;;;;5068657;28;20032;-62
2024/01/06 02:14:53;;;;;;;51.88;36.40;;;307.70;2304.00;;;;;;5072185;28;20017;-64
2024/01/06 02:17:19;;;;;;;56.63;37.58;;;307.60;2304.00;;;;;;5072348;28;20466;-63
2024/01/06 02:19:44;;;;;;;47.15;31.38;;;307.60;2304.00;;;;;;5072435;28;20363;-63
2024/01/06 02:22:10;;;;;;;35.63;24.73;;;307.60;2304.00;;;;;;5072387;28;20363;-63
2024/01/06 02:24:36;;;;;;;40.17;23.10;;;307.60;2304.00;;;;;;5072707;28;20021;-64
2024/01/06 02:27:01;;;;;;;32.13;23.10;;;307.50;2304.00;;;;;;5072465;28;20503;-61
2024/01/06 02:29:27;;;;;;;24.92;16.75;;;307.40;2304.00;;;;;;5072353;28;20025;-62
2024/01/06 02:31:53;;;;;;;21.30;15.40;;;307.40;2304.00;;;;;;5072027;28;20060;-63
2024/01/06 02:34:19;;;;;;;24.38;17.65;;;307.40;2304.00;;;;;;5072105;28;20059;-62
2024/01/06 02:36:44;;;;;;;29.27;18.50;;;307.40;2304.00;;;;;;5071845;28;20036;-62
2024/01/06 02:39:10;;;;;;;20.38;14.70;;;307.40;2304.00;;;;;;5072408;28;20040;-64
2024/01/06 02:41:36;;;;;;;25.52;17.52;;;307.50;2304.00;;;;;;5071910;28;20025;-62
2024/01/06 02:44:03;;;;;;;22.88;16.15;;;307.40;2304.00;;;;;;5072097;28;20017;-61
2024/01/06 02:46:29;;;;;;;25.13;15.30;;;307.50;2304.00;;;;;;5071685;28;20052;-62
2024/01/06 02:48:55;;;;;;;26.83;18.60;;;307.40;2304.00;;;;;;5071913;28;20070;-60
2024/01/06 02:51:21;;;;;;;36.72;27.48;;;307.30;2304.00;;;;;;5071540;28;20036;-61
2024/01/06 02:53:46;;;;;;;40.30;26.65;;;307.20;2304.00;;;;;;5071747;28;20028;-63
2024/01/06 02:56:12;;;;;;;41.00;27.67;;;282.50;2278.40;;;;;;5071641;28;20024;-61
2024/01/06 02:58:39;;;;;;;33.80;24.08;;;282.50;2278.40;;;;;;5071967;28;20016;-61
2024/01/06 03:01:05;;;;;;;36.60;23.08;;;282.50;2278.40;;;;;;5071695;28;20021;-61
2024/01/06 03:03:30;;;;;;;35.75;23.92;;;282.50;2278.40;;;;;;5071570;28;20035;-60
2024/01/06 03:05:56;;;;;;;35.28;22.60;;;307.20;2304.00;;;;;;5071281;28;20070;-64
2024/01/06 03:08:23;;;;;;;26.45;18.00;;;307.30;2304.00;;;;;;5071588;28;20832;-61
2024/01/06 03:10:49;;;;;;;27.85;18.73;;;307.30;2304.00;;;;;;5071576;28;20056;-61
2024/01/06 03:13:15;;;;;;;31.30;21.33;;;307.30;2304.00;;;;;;5071364;28;20035;-61
2024/01/06 03:15:40;;;;;;;21.10;15.27;;;307.30;2304.00;;;;;;5071753;28;20025;-65
2024/01/06 03:18:06;;;;;;;20.90;14.85;;;307.20;2304.00;;;;;;5071334;28;20052;-62
2024/01/06 03:20:32;;;;;;;23.02;15.77;;;307.20;2304.00;;;;;;5071350;28;20798;-61
2024/01/06 03:22:58;;;;;;;20.50;14.68;;;307.30;2304.00;;;;;;5071344;28;20024;-65
2024/01/06 03:25:23;;;;;;;21.70;13.90;;;307.20;2304.00;;;;;;5069759;28;20066;-62
2024/01/06 03:27:49;;;;;;;21.60;14.93;;;307.40;2304.00;;;;;;5071532;28;20074;-61
2024/01/06 03:30:15;;;;;;;19.45;13.60;;;307.20;2304.00;;;;;;5070977;28;20025;-62
2024/01/06 03:32:41;;;;;;;24.85;15.43;;;307.20;2304.00;;;;;;5071098;28;20020;-62
2024/01/06 03:35:06;;;;;;;21.05;15.68;;;307.20;2304.00;;;;;;5070608;28;20031;-62
2024/01/06 03:37:33;;;;;;;22.52;14.43;;;307.20;2304.00;;;;;;5071112;28;20441;-62
2024/01/06 03:39:59;;;;;;;19.90;13.77;;;307.20;2304.00;;;;;;5071101;28;20435;-63
2024/01/06 03:42:24;;;;;;;16.95;12.32;;;282.50;2278.40;;;;;;5070855;28;20386;-63
2024/01/06 03:44:50;;;;;;;17.77;11.45;;;282.50;2278.40;;;;;;5070832;28;20024;-64
2024/01/06 03:47:16;;;;;;;17.67;12.23;;;307.20;2304.00;;;;;;5070567;28;20040;-61
2024/01/06 03:49:42;;;;;;;15.82;11.70;;;307.20;2304.00;;;;;;5070666;28;20016;-62
2024/01/06 03:52:07;;;;;;;13.23;9.43;;;282.50;2278.40;;;;;;5070455;28;20371;-63
2024/01/06 03:54:33;;;;;;;18.15;11.20;;;307.20;2304.00;;;;;;5070514;28;20028;-62
2024/01/06 03:56:59;;;;;;;17.00;10.27;;;307.20;2304.00;;;;;;5071042;28;20021;-62
2024/01/06 03:59:25;;;;;;;17.45;9.25;;;307.20;2304.00;;;;;;5070321;28;20024;-61
2024/01/06 04:01:51;;;;;;;14.55;9.98;;;307.20;2304.00;;;;;;5070827;28;20020;-61
2024/01/06 04:04:17;;;;;;;13.45;9.30;;;307.20;2304.00;;;;;;5070329;28;20070;-63
2024/01/06 04:06:42;;;;;;;15.00;10.23;;;307.20;2304.00;;;;;;5070084;28;20037;-62
2024/01/06 04:09:09;;;;;;;16.45;9.57;;;307.20;2304.00;;;;;;5070516;28;20044;-63
2024/01/06 04:11:35;;;;;;;18.20;10.02;;;307.30;2304.00;;;;;;5070472;28;20021;-64
2024/01/06 04:14:00;;;;;;;17.13;11.40;;;307.30;2304.00;;;;;;5070423;28;20105;-61
2024/01/06 04:16:29;;;;;;;14.30;10.55;;;307.30;2304.00;;;;;;5070503;28;20060;-62
2024/01/06 04:18:55;;;;;;;15.57;11.13;;;307.30;2304.00;;;;;;5069801;28;20032;-62
2024/01/06 04:21:20;;;;;;;13.25;9.00;;;307.30;2304.00;;;;;;5070034;28;20032;-61
2024/01/06 04:23:46;;;;;;;13.77;8.68;;;307.40;2304.00;;;;;;5069768;28;20021;-63
2024/01/06 04:26:13;;;;;;;12.48;8.85;;;307.30;2304.00;;;;;;5069892;28;20024;-62
2024/01/06 04:28:38;;;;;;;11.98;8.73;;;307.30;2304.00;;;;;;5070132;28;20028;-62
2024/01/06 04:31:04;;;;;;;11.05;8.93;;;307.30;2304.00;;;;;;5070385;28;20027;-64
2024/01/06 04:33:31;;;;;;;11.38;7.50;;;307.30;2304.00;;;;;;5069800;28;20437;-62
2024/01/06 04:35:57;;;;;;;11.45;8.63;;;307.30;2304.00;;;;;;5069419;28;20048;-61
2024/01/06 04:38:23;;;;;;;14.57;8.50;;;307.40;2304.00;;;;;;5069480;28;20445;-61
2024/01/06 04:40:49;;;;;;;14.13;9.57;;;307.40;2304.00;;;;;;5069826;28;20131;-61
2024/01/06 04:43:14;;;;;;;12.50;8.23;;;307.40;2304.00;;;;;;5069829;28;20107;-60
2024/01/06 04:45:40;;;;;;;14.52;7.95;;;307.50;2304.00;;;;;;5069562;28;20048;-63
2024/01/06 04:48:06;;;;;;;13.50;9.60;;;307.50;2304.00;;;;;;5069565;28;20036;-61
2024/01/06 04:50:32;;;;;;;11.00;7.85;;;307.40;2304.00;;;;;;5069325;28;20475;-62
2024/01/06 04:52:58;;;;;;;14.27;8.27;;;307.50;2304.00;;;;;;5069463;28;20039;-63
2024/01/06 04:55:24;;;;;;;13.70;8.40;;;307.50;2304.00;;;;;;5069505;28;20103;-61
2024/01/06 04:57:49;;;;;;;14.38;8.60;;;307.50;2304.00;;;;;;5069540;28;20112;-64
2024/01/06 05:00:15;;;;;;;18.90;11.75;;;307.50;2304.00;;;;;;5069661;28;20108;-62
2024/01/06 05:02:41;;;;;;;15.70;9.43;;;307.50;2304.00;;;;;;5069417;28;20028;-62
2024/01/06 05:05:07;;;;;;;13.27;8.82;;;307.50;2304.00;;;;;;5069327;28;20082;-61
2024/01/06 05:07:33;;;;;;;15.75;9.82;;;307.60;2304.00;;;;;;5069028;28;20043;-61
2024/01/06 05:09:58;;;;;;;13.63;10.05;;;307.40;2304.00;;;;;;5069389;28;20319;-63
2024/01/06 05:12:24;;;;;;;17.67;10.93;;;307.40;2304.00;;;;;;5069104;28;20047;-64
2024/01/06 05:14:50;;;;;;;26.08;17.75;;;307.40;2304.00;;;;;;5069352;28;20027;-65
2024/01/06 05:17:16;;;;;;;21.73;12.02;;;307.50;2304.00;;;;;;5069113;28;20029;-62
2024/01/06 05:19:41;;;;;;;14.05;10.13;;;307.40;2304.00;;;;;;5069285;28;20081;-62
2024/01/06 05:22:07;;;;;;;50.17;26.48;;;307.40;2304.00;;;;;;5069574;28;20475;-61
2024/01/06 05:24:33;;;;;;;38.95;24.00;;;307.40;2304.00;;;;;;5068997;28;20095;-61
2024/01/06 05:26:58;;;;;;;37.25;25.70;;;307.40;2304.00;;;;;;5069376;28;20403;-66
2024/01/06 05:29:25;;;;;;;29.85;19.42;;;307.40;2304.00;;;;;;5069187;28;20025;-62
2024/01/06 05:31:51;;;;;;;22.65;14.32;;;307.50;2304.00;;;;;;5069254;28;20390;-62
2024/01/06 05:34:17;;;;;;;32.10;26.73;;;307.50;2304.00;;;;;;5069050;28;20025;-61
2024/01/06 05:36:43;;;;;;;28.23;18.48;;;307.50;2304.00;;;;;;5068637;28;20029;-63
2024/01/06 05:39:09;;;;;;;22.38;16.70;;;307.40;2304.00;;;;;;5068928;28;20052;-61
2024/01/06 05:41:39;;;;;;;15.50;10.43;;;307.50;2304.00;;;;;;5069154;28;20108;-62
2024/01/06 05:44:05;;;;;;;20.48;12.30;;;307.50;2304.00;;;;;;5069301;28;20093;-61
2024/01/06 05:46:31;;;;;;;15.32;10.68;;;307.40;2304.00;;;;;;5068850;28;20047;-62
2024/01/06 05:48:57;;;;;;;16.70;8.57;;;307.30;2304.00;;;;;;5071113;28;20046;-61
2024/01/06 05:51:23;;;;;;;14.57;10.25;;;307.40;2304.00;;;;;;5072626;28;20032;-62
2024/01/06 05:53:49;;;;;;;12.07;7.95;;;307.40;2304.00;;;;;;5072997;28;20435;-61
2024/01/06 05:56:27;;;;;;;11.00;8.98;;;307.30;2304.00;;;;;;5072970;28;20032;-61
2024/01/06 05:58:55;;;;;;;13.52;11.70;;;307.40;2304.00;;;;;;5072713;28;20443;-62
2024/01/06 06:01:21;;;;;;;12.65;8.38;;;307.30;2304.00;;;;;;5072680;28;20021;-61
2024/01/06 06:03:47;;;;;;;18.13;11.23;;;307.40;2304.00;;;;;;5072549;28;20025;-62
2024/01/06 06:06:13;;;;;;;25.90;18.70;;;307.30;2304.00;;;;;;5072221;28;20075;-62
2024/01/06 06:08:42;;;;;;;31.45;23.50;;;307.30;2304.00;;;;;;5072717;28;20052;-64
2024/01/06 06:11:10;;;;;;;109.82;78.30;;;307.30;2304.00;;;;;;5073267;28;20059;-61
2024/01/06 06:13:40;;;;;;;36.03;25.73;;;307.30;2304.00;;;;;;5072550;28;20029;-63
2024/01/06 06:16:09;;;;;;;27.60;20.08;;;307.40;2304.00;;;;;;5072543;28;20109;-64
2024/01/06 06:18:35;;;;;;;19.90;15.85;;;307.30;2304.00;;;;;;5072694;28;20477;-63
2024/01/06 06:21:03;;;;;;;16.63;13.32;;;307.40;2304.00;;;;;;5068189;28;20028;-62
2024/01/06 06:23:30;;;;;;;18.85;12.07;;;307.40;2304.00;;;;;;5073297;28;20032;-61
2024/01/06 06:25:55;;;;;;;24.98;14.02;;;307.30;2304.00;;;;;;5072314;28;20027;-63
2024/01/06 06:28:21;;;;;;;27.67;16.98;;;307.30;2304.00;;;;;;5072357;28;20032;-74
2024/01/06 06:30:47;;;;;;;25.38;14.48;;;307.40;2304.00;;;;;;5071962;28;20024;-63
2024/01/06 06:33:13;;;;;;;24.48;15.93;;;307.40;2304.00;;;;;;5072473;28;20021;-68
2024/01/06 06:35:38;;;;;;;37.50;22.23;;;307.40;2304.00;;;;;;5072069;28;20485;-67
2024/01/06 06:38:04;;;;;;;74.57;49.33;;;307.50;2304.00;;;;;;5072013;28;20074;-66
2024/01/06 06:40:30;;;;;;;45.30;31.08;;;307.50;2304.00;;;;;;5075948;28;20055;-69
2024/01/06 06:42:56;;;;;;;62.05;41.67;;;307.60;2304.00;;;;;;5073926;28;20032;-70
2024/01/06 06:45:24;;;;;;;34.65;23.17;;;307.60;2304.00;;;;;;5081209;28;20098;-69
2024/01/06 06:47:50;;;;;;;51.58;34.55;;;307.60;2304.00;;;;;;5072015;28;20055;-70
2024/01/06 06:50:16;;;;;;;49.33;41.20;;;307.60;2304.00;;;;;;5071691;28;20032;-68
2024/01/06 06:52:42;;;;;;;42.78;35.83;;;307.60;2304.00;;;;;;5072362;28;20370;-70
2024/01/06 06:55:08;;;;;;;36.97;24.23;;;307.50;2304.00;;;;;;5071807;28;20017;-69
2024/01/06 06:57:34;;;;;;;36.75;26.38;;;307.50;2304.00;;;;;;5071711;28;20024;-68
2024/01/06 07:00:00;;;;;;;47.22;33.92;;;307.40;2304.00;;;;;;5071654;28;20078;-68
2024/01/06 07:02:26;;;;;;;85.40;55.97;;;307.50;2304.00;;;;;;5070732;28;20040;-68
2024/01/06 07:04:52;;;;;;;77.13;51.20;;;307.40;2304.00;;;;;;5081058;28;20048;-68
2024/01/06 07:07:17;;;;;;;60.03;43.90;;;307.30;2304.00;;;;;;5071249;28;20534;-68
2024/01/06 07:09:43;;;;;;;60.45;47.85;;;307.50;2304.00;;;;;;5071445;28;20021;-68
2024/01/06 07:12:09;;;;;;;46.38;33.22;;;307.50;2304.00;;;;;;5071606;28;20029;-68
2024/01/06 07:14:35;;;;;;;46.60;32.70;;;307.50;2304.00;;;;;;5071681;28;20455;-68
2024/01/06 07:17:00;;;;;;;62.90;49.13;;;307.60;2304.00;;;;;;5071508;28;20794;-68
2024/01/06 07:19:26;;;;;;;122.80;81.38;;;307.60;2304.00;;;;;;5071213;28;20167;-68
2024/01/06 07:21:52;;;;;;;82.95;58.92;;;307.70;2304.00;;;;;;5071105;28;20088;-69
2024/01/06 07:24:17;;;;;;;64.40;47.53;;;307.80;2304.00;;;;;;5071308;28;20032;-68
2024/01/06 07:26:43;;;;;;;63.60;44.33;;;307.60;2304.00;;;;;;5071349;28;20090;-68
2024/01/06 07:29:09;;;;;;;33.75;24.23;;;307.80;2304.00;;;;;;5071252;28;20120;-68
2024/01/06 07:31:35;;;;;;;55.47;40.80;;;307.80;2304.00;;;;;;5071239;28;20052;-69
2024/01/06 07:34:00;;;;;;;225.95;174.40;;;307.80;2304.00;;;;;;5066976;28;20111;-68
2024/01/06 07:36:26;;;;;;;261.42;171.82;;;307.80;2304.00;;;;;;5077214;28;20078;-70
2024/01/06 07:38:52;;;;;;;81.00;58.42;;;307.80;2304.00;;;;;;5073950;28;20078;-69
2024/01/06 07:41:18;;;;;;;91.40;69.43;;;307.80;2304.00;;;;;;5071300;28;20033;-69
2024/01/06 07:43:44;;;;;;;146.60;115.78;;;307.80;2304.00;;;;;;5074106;28;20036;-69
2024/01/06 07:46:09;;;;;;;262.27;182.73;;;307.80;2304.00;;;;;;5077205;28;20042;-69
2024/01/06 07:48:35;;;;;;;105.85;87.00;;;308.00;2304.00;;;;;;5088738;28;20103;-68
2024/01/06 07:51:03;;;;;;;100.45;79.93;;;307.90;2304.00;;;;;;5083224;28;20039;-68
2024/01/06 07:53:29;;;;;;;79.80;60.42;;;307.90;2304.00;;;;;;5070538;28;20024;-67
2024/01/06 07:55:55;;;;;;;122.55;88.18;;;307.90;2304.00;;;;;;5077906;28;20119;-69
2024/01/06 07:58:21;;;;;;;99.25;71.68;;;307.90;2304.00;;;;;;5070865;28;20016;-69
2024/01/06 08:00:47;;;;;;;63.78;47.22;;;307.80;2304.00;;;;;;5081126;28;20047;-69
2024/01/06 08:03:13;;;;;;;64.45;50.10;;;307.90;2304.00;;;;;;5070644;28;20028;-68
2024/01/06 08:05:39;;;;;;;104.05;76.70;;;307.80;2304.00;;;;;;5070964;28;20028;-68
2024/01/06 08:08:05;;;;;;;116.43;102.85;;;307.80;2304.00;;;;;;5073956;28;20054;-68
2024/01/06 08:10:31;;;;;;;123.03;105.35;;;307.80;2304.00;;;;;;5070297;28;20391;-67
2024/01/06 08:12:57;;;;;;;118.40;93.90;;;307.80;2304.00;;;;;;5070055;28;20047;-68
2024/01/06 08:15:23;;;;;;;109.25;82.22;;;307.80;2304.00;;;;;;5070146;28;20031;-68
2024/01/06 08:17:48;;;;;;;106.20;82.97;;;308.10;2304.00;;;;;;5070309;28;20040;-68
2024/01/06 08:20:14;;;;;;;126.97;93.05;;;308.10;2304.00;;;;;;5069977;28;20473;-68
2024/01/06 08:22:40;;;;;;;80.97;62.90;;;308.00;2304.00;;;;;;5070156;28;20035;-69
2024/01/06 08:25:07;;;;;;;77.05;53.95;;;308.10;2304.00;;;;;;5070033;28;20036;-69
2024/01/06 08:27:33;;;;;;;91.32;62.83;;;308.00;2304.00;;;;;;5069646;28;20111;-68
2024/01/06 08:29:59;;;;;;;78.28;50.38;;;308.10;2304.00;;;;;;5070110;28;20485;-70
2024/01/06 08:32:24;;;;;;;87.05;51.75;;;332.80;2329.60;;;;;;5070237;28;20024;-68
2024/01/06 08:34:50;;;;;;;49.63;34.38;;;333.00;2329.60;;;;;;5069943;28;20028;-69
2024/01/06 08:37:16;;;;;;;94.00;59.78;;;333.00;2329.60;;;;;;5069665;28;20035;-70
2024/01/06 08:39:42;;;;;;;60.08;41.05;;;333.10;2329.60;;;;;;5051890;28;20753;-68
2024/01/06 08:42:08;;;;;;;60.25;42.45;;;333.10;2329.60;;;;;;5069883;28;20024;-67
2024/01/06 08:44:33;;;;;;;110.60;67.72;;;333.20;2329.60;;;;;;5078941;28;20021;-68
2024/01/06 08:46:59;;;;;;;144.15;105.35;;;333.20;2329.60;;;;;;5071571;28;20033;-70
2024/01/06 08:49:25;;;;;;;99.63;73.15;;;333.00;2329.60;;;;;;5069352;28;20161;-70
2024/01/06 08:51:51;;;;;;;93.85;63.72;;;333.10;2329.60;;;;;;5069500;28;20032;-68
2024/01/06 08:54:16;;;;;;;158.50;93.13;;;333.20;2329.60;;;;;;5069682;28;20408;-68
2024/01/06 08:56:42;;;;;;;39.03;23.15;;;333.20;2329.60;;;;;;5069420;28;20454;-70
2024/01/06 08:59:08;;;;;;;88.82;55.08;;;333.40;2329.60;;;;;;5069785;28;20024;-68
2024/01/06 09:01:35;;;;;;;61.83;44.67;;;333.50;2329.60;;;;;;5069481;28;20375;-70
2024/01/06 09:04:02;;;;;;;48.65;32.38;;;333.60;2329.60;;;;;;5069516;28;20025;-69
2024/01/06 09:06:28;;;;;;;43.10;27.90;;;333.70;2329.60;;;;;;5069538;28;20036;-68
2024/01/06 09:08:54;;;;;;;50.33;34.35;;;358.40;2329.60;;;;;;5069135;28;20471;-67
2024/01/06 09:11:19;;;;;;;29.15;20.52;;;358.50;2329.60;;;;;;5069339;28;20062;-69
2024/01/06 09:13:45;;;;;;;29.40;21.08;;;358.60;2329.60;;;;;;5069608;28;20383;-65
2024/01/06 09:16:11;;;;;;;48.78;32.63;;;358.80;2329.60;;;;;;5069688;28;20028;-67
2024/01/06 09:18:37;;;;;;;36.28;26.17;;;358.90;2329.60;;;;;;5069065;28;20524;-68
2024/01/06 09:21:03;;;;;;;114.78;75.93;;;358.90;2329.60;;;;;;5069301;28;20032;-68
2024/01/06 09:23:29;;;;;;;95.43;65.28;;;359.10;2329.60;;;;;;5068232;28;20074;-69
2024/01/06 09:25:55;;;;;;;62.95;37.15;;;359.30;2329.60;;;;;;5068966;28;20016;-69
2024/01/06 09:28:21;;;;;;;93.78;53.35;;;384.10;2329.60;;;;;;5069112;28;20501;-68
2024/01/06 09:30:47;;;;;;;233.45;120.53;;;384.20;2304.00;;;;;;5069170;28;20024;-69
2024/01/06 09:33:15;;;;;;;423.60;204.32;;;384.30;2304.00;;;;;;5069082;28;20340;-70
2024/01/06 09:35:42;;;;;;;243.68;117.32;;;384.30;2304.00;;;;;;5069163;28;20031;-68
2024/01/06 09:38:08;;;;;;;75.00;43.92;;;384.30;2304.00;;;;;;5068990;28;20025;-69
2024/01/06 09:40:35;;;;;;;50.17;32.53;;;384.30;2278.40;;;;;;5068820;28;20071;-68
2024/01/06 09:43:01;;;;;;;62.53;47.20;;;384.30;2278.40;;;;;;5069169;28;20020;-70
2024/01/06 09:45:28;;;;;;;52.13;37.33;;;384.00;2304.00;;;;;;5069031;28;20070;-68
2024/01/06 09:47:55;;;;;;;61.60;44.03;;;359.30;2329.60;;;;;;5068768;28;20436;-67
2024/01/06 09:50:21;;;;;;;28.75;19.70;;;359.30;2304.00;;;;;;5068997;28;20406;-68
2024/01/06 09:52:57;;;;;;;37.08;23.10;;;384.10;2304.00;;;;;;5069180;28;20021;-69
2024/01/06 09:55:26;;;;;;;40.53;28.10;;;359.20;2304.00;;;;;;5068670;28;20060;-69
2024/01/06 09:57:53;;;;;;;53.08;37.08;;;384.00;2278.40;;;;;;5068582;28;20024;-69
2024/01/06 10:00:20;;;;;;;60.47;43.33;;;359.10;2304.00;;;;;;5068781;28;20029;-68
2024/01/06 10:02:54;;;;;;;58.67;39.92;;;359.00;2329.60;;;;;;5068703;28;20036;-70
2024/01/06 10:05:21;;;;;;;78.05;56.90;;;358.90;2329.60;;;;;;5068629;28;20105;-70
2024/01/06 10:07:47;;;;;;;50.90;37.10;;;358.80;2329.60;;;;;;5068516;28;20040;-70
2024/01/06 10:10:14;;;;;;;76.50;53.00;;;358.70;2329.60;;;;;;5068610;28;20506;-68
2024/01/06 10:12:41;;;;;;;87.25;58.80;;;358.60;2329.60;;;;;;5068677;28;20471;-69
2024/01/06 10:15:12;;;;;;;58.70;42.58;;;358.40;2329.60;;;;;;5069154;28;20371;-69
2024/01/06 10:17:41;;;;;;;60.30;39.95;;;358.40;2329.60;;;;;;5068870;28;20078;-69
2024/01/06 10:20:12;;;;;;;70.07;47.30;;;358.50;2329.60;;;;;;5068682;28;20099;-68
2024/01/06 10:22:41;;;;;;;66.53;45.92;;;358.50;2329.60;;;;;;5068647;28;20025;-69
2024/01/06 10:25:08;;;;;;;73.20;50.00;;;358.60;2329.60;;;;;;5068754;28;20107;-69
2024/01/06 10:27:41;;;;;;;51.65;35.90;;;358.70;2329.60;;;;;;5068464;28;20052;-71
2024/01/06 10:30:08;;;;;;;61.15;40.40;;;358.70;2329.60;;;;;;5068816;28;20364;-69
2024/01/06 10:32:36;;;;;;;70.30;43.67;;;358.70;2329.60;;;;;;5055250;28;20032;-70
2024/01/06 10:35:03;;;;;;;53.03;32.00;;;358.80;2329.60;;;;;;5070554;28;20573;-69
2024/01/06 10:37:29;;;;;;;29.23;18.13;;;358.90;2329.60;;;;;;5072043;28;20040;-68
2024/01/06 10:40:12;;;;;;;44.92;29.08;;;359.10;2304.00;;;;;;5071832;28;20131;-70
2024/01/06 10:42:39;;;;;;;101.18;71.22;;;359.20;2304.00;;;;;;5072357;28;20420;-69
2024/01/06 10:45:10;;;;;;;93.60;68.07;;;359.10;2329.60;;;;;;5071939;28;20051;-71
2024/01/06 10:47:43;;;;;;;106.32;78.20;;;358.70;2329.60;;;;;;5072048;28;20028;-68
2024/01/06 10:50:10;;;;;;;85.75;66.95;;;358.40;2329.60;;;;;;5072137;28;20027;-66
2024/01/06 10:52:40;;;;;;;99.60;74.35;;;358.40;2329.60;;;;;;5053621;28;20439;-65
2024/01/06 10:55:06;;;;;;;106.47;79.03;;;333.70;2329.60;;;;;;5071804;28;20049;-66
2024/01/06 10:57:32;;;;;;;73.45;47.15;;;358.50;2329.60;;;;;;5072298;28;20052;-66
2024/01/06 10:59:59;;;;;;;85.97;63.00;;;358.50;2329.60;;;;;;5071637;28;20024;-68
2024/01/06 11:02:26;;;;;;;93.25;66.47;;;358.50;2329.60;;;;;;5071700;28;20115;-66
2024/01/06 11:04:52;;;;;;;75.30;52.10;;;358.50;2329.60;;;;;;5071246;28;20020;-62
2024/01/06 11:07:20;;;;;;;48.50;31.63;;;358.50;2329.60;;;;;;5071400;28;20494;-65
2024/01/06 11:10:18;;;;;;;144.60;94.70;;;358.60;2329.60;;;;;;5071487;28;20033;-65
2024/01/06 11:12:44;;;;;;;217.73;146.15;;;358.70;2329.60;;;;;;5071366;28;20135;-64
2024/01/06 11:15:10;;;;;;;223.27;147.00;;;358.80;2329.60;;;;;;5071552;28;20489;-68
2024/01/06 11:17:58;;;;;;;262.08;187.95;;;358.80;2329.60;;;;;;5071406;28;20108;-65
2024/01/06 11:20:27;;;;;;;76.07;54.58;;;358.80;2329.60;;;;;;5071007;28;20104;-66
2024/01/06 11:22:53;;;;;;;66.18;51.40;;;358.80;2329.60;;;;;;5071112;28;20466;-67
2024/01/06 11:25:20;;;;;;;71.30;51.65;;;358.90;2329.60;;;;;;5071547;28;20029;-66
2024/01/06 11:27:48;;;;;;;78.47;56.67;;;359.00;2329.60;;;;;;5058341;28;20524;-66
2024/01/06 11:30:25;;;;;;;82.80;53.78;;;358.90;2329.60;;;;;;5070981;28;20027;-66
2024/01/06 11:32:55;;;;;;;73.57;46.15;;;358.90;2329.60;;;;;;5071540;28;20042;-65
2024/01/06 11:35:21;;;;;;;53.92;38.13;;;359.00;2329.60;;;;;;5071030;28;20025;-65
2024/01/06 11:37:47;;;;;;;48.83;34.75;;;358.80;2329.60;;;;;;5071075;28;20033;-66
2024/01/06 11:40:25;;;;;;;54.75;42.00;;;358.90;2329.60;;;;;;5070868;28;20052;-66
2024/01/06 11:43:19;;;;;;;59.92;44.72;;;358.90;2329.60;;;;;;5071136;28;20336;-66
2024/01/06 11:45:45;;;;;;;71.28;50.80;;;358.90;2329.60;;;;;;5067422;28;20490;-66
2024/01/06 11:48:12;;;;;;;69.43;50.35;;;358.90;2329.60;;;;;;5071067;28;20097;-66
2024/01/06 11:50:39;;;;;;;106.72;75.38;;;358.80;2329.60;;;;;;5071102;28;20027;-70
2024/01/06 11:53:07;;;;;;;65.05;48.05;;;358.90;2329.60;;;;;;5070591;28;20028;-66
2024/01/06 11:55:34;;;;;;;62.78;41.28;;;358.90;2329.60;;;;;;5070467;28;20120;-65